< < Back
Terminal Aerodrome Forecast


Current Version              Previous Versions:   1  2  3  4  5  6  7  8  9  

Terminal Aerodrome Forecast

586
FTUS42 KGSP 010500
TAFGSP
TAF
KGSP 010538Z 0106/0206 00000KT P6SM SKC
     FM011000 00000KT 5SM BR FEW250
     FM011300 VRB03KT P6SM FEW250
     FM011500 20004KT P6SM FEW050=

Latest METAR

098
SAUS70 KWBC 010956
MTRGSP
METAR KGSP 010953Z 00000KT 10SM CLR 16/15 A2994 RMK AO2 SLP129
T01610150


USA.gov is the U.S. government's official web portal to all federal, state and local government web resources and services.